AAL9078 KSFO-MMSD
Flight info
| Callsign | AAL9078 |
|---|---|
| Flight time | 2h 37m |
| Altitude | 35000 |
| Route | WESLA5 YYUNG DCT LAX DCT TIJ UT6 IMUSU UT25 LTO DCT ENEKO ENEKO1A |
| Aircraft | MD83/M-SDFGIRWY/S |
Departure
| Time | 2026-04-23 16:24 |
|---|---|
| Airport | San Francisco International Airport (KSFO) |
Arrival
| Time | 2026-04-23 19:01 |
|---|---|
| Airport | Los Cabos International Airport (MMSD) |
| Time | Latitude | Longitude | Altitude | Speed | Heading |
|---|---|---|---|---|---|
| 2026-04-23 15:41 | 37.61074 | -122.38489 | 20 ft | 0 kts | 307° |
| 2026-04-23 16:11 | 37.61068 | -122.38480 | 20 ft | 4 kts | 318° |
| 2026-04-23 16:12 | 37.61056 | -122.38470 | 21 ft | 4 kts | 22° |
| 2026-04-23 16:12 | 37.61042 | -122.38489 | 21 ft | 4 kts | 48° |
| 2026-04-23 16:12 | 37.61028 | -122.38505 | 23 ft | 1 kts | 31° |
| 2026-04-23 16:12 | 37.61025 | -122.38507 | 21 ft | 0 kts | 31° |
| 2026-04-23 16:15 | 37.61031 | -122.38502 | 20 ft | 2 kts | 31° |
| 2026-04-23 16:15 | 37.61052 | -122.38484 | 21 ft | 5 kts | 44° |
| 2026-04-23 16:15 | 37.61068 | -122.38440 | 19 ft | 6 kts | 71° |
| 2026-04-23 16:16 | 37.61086 | -122.38378 | 18 ft | 9 kts | 70° |
| 2026-04-23 16:16 | 37.61096 | -122.38301 | 18 ft | 9 kts | 90° |
| 2026-04-23 16:16 | 37.61123 | -122.38231 | 19 ft | 9 kts | 35° |
| 2026-04-23 16:16 | 37.61185 | -122.38188 | 17 ft | 11 kts | 27° |
| 2026-04-23 16:17 | 37.61263 | -122.38137 | 15 ft | 14 kts | 27° |
| 2026-04-23 16:17 | 37.61348 | -122.38081 | 16 ft | 13 kts | 27° |
| 2026-04-23 16:17 | 37.61429 | -122.38027 | 16 ft | 13 kts | 28° |
| 2026-04-23 16:17 | 37.61515 | -122.37969 | 15 ft | 14 kts | 27° |
| 2026-04-23 16:18 | 37.61602 | -122.37912 | 17 ft | 13 kts | 27° |
| 2026-04-23 16:18 | 37.61665 | -122.37842 | 19 ft | 12 kts | 75° |
| 2026-04-23 16:18 | 37.61662 | -122.37742 | 19 ft | 12 kts | 97° |
| 2026-04-23 16:18 | 37.61652 | -122.37636 | 19 ft | 13 kts | 97° |
| 2026-04-23 16:19 | 37.61641 | -122.37527 | 20 ft | 12 kts | 97° |
| 2026-04-23 16:19 | 37.61631 | -122.37427 | 22 ft | 10 kts | 97° |
| 2026-04-23 16:19 | 37.61622 | -122.37344 | 27 ft | 11 kts | 97° |
| 2026-04-23 16:19 | 37.61595 | -122.37215 | 24 ft | 17 kts | 116° |
| 2026-04-23 16:20 | 37.61540 | -122.37082 | 23 ft | 17 kts | 118° |
| 2026-04-23 16:20 | 37.61481 | -122.36953 | 23 ft | 17 kts | 127° |
| 2026-04-23 16:20 | 37.61399 | -122.36831 | 20 ft | 20 kts | 130° |
| 2026-04-23 16:20 | 37.61324 | -122.36680 | 19 ft | 21 kts | 117° |
| 2026-04-23 16:21 | 37.61253 | -122.36510 | 17 ft | 23 kts | 117° |
| 2026-04-23 16:21 | 37.61182 | -122.36341 | 18 ft | 21 kts | 117° |
| 2026-04-23 16:21 | 37.61114 | -122.36179 | 18 ft | 21 kts | 118° |
| 2026-04-23 16:21 | 37.61059 | -122.36040 | 22 ft | 13 kts | 110° |
| 2026-04-23 16:22 | 37.61073 | -122.35929 | 19 ft | 14 kts | 45° |
| 2026-04-23 16:22 | 37.61150 | -122.35867 | 20 ft | 8 kts | 28° |
| 2026-04-23 16:22 | 37.61188 | -122.35883 | 20 ft | 6 kts | 301° |
| 2026-04-23 16:22 | 37.61199 | -122.35911 | 19 ft | 3 kts | 296° |
| 2026-04-23 16:23 | 37.61216 | -122.35954 | 18 ft | 8 kts | 297° |
| 2026-04-23 16:23 | 37.61298 | -122.36142 | 15 ft | 48 kts | 299° |
| 2026-04-23 16:23 | 37.61554 | -122.36750 | 23 ft | 110 kts | 297° |
| 2026-04-23 16:23 | 37.62003 | -122.37823 | 27 ft | 165 kts | 297° |
| 2026-04-23 16:24 | 37.62556 | -122.39209 | 483 ft | 182 kts | 297° |
| 2026-04-23 16:24 | 37.63106 | -122.40659 | 1351 ft | 184 kts | 297° |
| 2026-04-23 16:24 | 37.63669 | -122.42127 | 2139 ft | 188 kts | 297° |
| 2026-04-23 16:24 | 37.64270 | -122.43623 | 2806 ft | 197 kts | 300° |
| 2026-04-23 16:25 | 37.64957 | -122.45175 | 3442 ft | 209 kts | 302° |
| 2026-04-23 16:25 | 37.65723 | -122.46793 | 4134 ft | 219 kts | 302° |
| 2026-04-23 16:25 | 37.66521 | -122.48481 | 4837 ft | 230 kts | 298° |
| 2026-04-23 16:25 | 37.67044 | -122.50456 | 5403 ft | 246 kts | 278° |
| 2026-04-23 16:26 | 37.67014 | -122.52672 | 5969 ft | 261 kts | 258° |
| 2026-04-23 16:26 | 37.66193 | -122.54760 | 6514 ft | 275 kts | 228° |
| 2026-04-23 16:26 | 37.64610 | -122.56150 | 7122 ft | 284 kts | 200° |
| 2026-04-23 16:26 | 37.62651 | -122.56483 | 7798 ft | 289 kts | 172° |
| 2026-04-23 16:27 | 37.60747 | -122.55686 | 8455 ft | 292 kts | 147° |
| 2026-04-23 16:27 | 37.59044 | -122.54265 | 9133 ft | 296 kts | 145° |
| 2026-04-23 16:27 | 37.57306 | -122.52840 | 9804 ft | 299 kts | 147° |
| 2026-04-23 16:27 | 37.55489 | -122.51483 | 10235 ft | 313 kts | 150° |
| 2026-04-23 16:28 | 37.53536 | -122.50143 | 10399 ft | 334 kts | 152° |
| 2026-04-23 16:28 | 37.51389 | -122.48780 | 10572 ft | 355 kts | 154° |
| 2026-04-23 16:28 | 37.49030 | -122.47619 | 10753 ft | 373 kts | 169° |
| 2026-04-23 16:28 | 37.46430 | -122.47519 | 11296 ft | 376 kts | 188° |
| 2026-04-23 16:29 | 37.43840 | -122.48035 | 11990 ft | 378 kts | 191° |
| 2026-04-23 16:29 | 37.41240 | -122.48629 | 12648 ft | 382 kts | 191° |
| 2026-04-23 16:29 | 37.38618 | -122.49233 | 13307 ft | 385 kts | 191° |
| 2026-04-23 16:29 | 37.35971 | -122.49832 | 13951 ft | 388 kts | 190° |
| 2026-04-23 16:30 | 37.33297 | -122.50408 | 14517 ft | 392 kts | 190° |
| 2026-04-23 16:30 | 37.30595 | -122.50951 | 15094 ft | 395 kts | 189° |
| 2026-04-23 16:30 | 37.27870 | -122.51467 | 15637 ft | 398 kts | 189° |
| 2026-04-23 16:30 | 37.25115 | -122.51972 | 16179 ft | 401 kts | 189° |
| 2026-04-23 16:31 | 37.22372 | -122.52467 | 16700 ft | 404 kts | 189° |
| 2026-04-23 16:31 | 37.19575 | -122.52970 | 17205 ft | 408 kts | 189° |
| 2026-04-23 16:31 | 37.16763 | -122.53466 | 17791 ft | 408 kts | 190° |
| 2026-04-23 16:31 | 37.13943 | -122.53967 | 18344 ft | 410 kts | 191° |
| 2026-04-23 16:32 | 37.11103 | -122.54486 | 18763 ft | 414 kts | 191° |
| 2026-04-23 16:32 | 37.08242 | -122.55018 | 19187 ft | 416 kts | 191° |
| 2026-04-23 16:32 | 37.05372 | -122.55553 | 19646 ft | 418 kts | 191° |
| 2026-04-23 16:32 | 37.03462 | -122.55901 | 19934 ft | 419 kts | 189° |
| 2026-04-23 16:33 | 37.00521 | -122.55843 | 20286 ft | 429 kts | 171° |
| 2026-04-23 16:33 | 36.97686 | -122.54601 | 20690 ft | 437 kts | 155° |
| 2026-04-23 16:33 | 36.95050 | -122.52679 | 21048 ft | 442 kts | 150° |
| 2026-04-23 16:33 | 36.92431 | -122.50628 | 21390 ft | 446 kts | 150° |
| 2026-04-23 16:34 | 36.89802 | -122.48562 | 21816 ft | 448 kts | 150° |
| 2026-04-23 16:34 | 36.87152 | -122.46498 | 22217 ft | 450 kts | 151° |
| 2026-04-23 16:34 | 36.84476 | -122.44455 | 22582 ft | 452 kts | 152° |
| 2026-04-23 16:34 | 36.81767 | -122.42433 | 22936 ft | 455 kts | 152° |
| 2026-04-23 16:35 | 36.79030 | -122.40419 | 23239 ft | 458 kts | 153° |
| 2026-04-23 16:35 | 36.76265 | -122.38406 | 23567 ft | 461 kts | 154° |
| 2026-04-23 16:35 | 36.73485 | -122.36396 | 23925 ft | 463 kts | 154° |
| 2026-04-23 16:35 | 36.70694 | -122.34377 | 24232 ft | 465 kts | 154° |
| 2026-04-23 16:36 | 36.67892 | -122.32347 | 24512 ft | 467 kts | 154° |
| 2026-04-23 16:36 | 36.65077 | -122.30300 | 24789 ft | 469 kts | 154° |
| 2026-04-23 16:36 | 36.62291 | -122.28265 | 24986 ft | 473 kts | 154° |
| 2026-04-23 16:36 | 36.59445 | -122.26195 | 25249 ft | 474 kts | 154° |
| 2026-04-23 16:37 | 36.56588 | -122.24125 | 25538 ft | 476 kts | 154° |
| 2026-04-23 16:37 | 36.53725 | -122.22052 | 25826 ft | 477 kts | 154° |
| 2026-04-23 16:37 | 36.50851 | -122.19969 | 26078 ft | 479 kts | 154° |
| 2026-04-23 16:37 | 36.47966 | -122.17878 | 26306 ft | 481 kts | 154° |
| 2026-04-23 16:38 | 36.45069 | -122.15773 | 26534 ft | 483 kts | 155° |
| 2026-04-23 16:38 | 36.42163 | -122.13662 | 26770 ft | 485 kts | 155° |
| 2026-04-23 16:38 | 36.39247 | -122.11551 | 27039 ft | 485 kts | 155° |
| 2026-04-23 16:38 | 36.36339 | -122.09449 | 27402 ft | 483 kts | 155° |
| 2026-04-23 16:39 | 36.33438 | -122.07350 | 27805 ft | 481 kts | 155° |
| 2026-04-23 16:39 | 36.30551 | -122.05263 | 28145 ft | 480 kts | 155° |
| 2026-04-23 16:39 | 36.27663 | -122.03178 | 28430 ft | 480 kts | 155° |
| 2026-04-23 16:39 | 36.24779 | -122.01101 | 28760 ft | 479 kts | 155° |
| 2026-04-23 16:40 | 36.21904 | -121.99036 | 29095 ft | 478 kts | 155° |
| 2026-04-23 16:40 | 36.19032 | -121.96974 | 29426 ft | 477 kts | 155° |
| 2026-04-23 16:40 | 36.16166 | -121.94916 | 29731 ft | 476 kts | 155° |
| 2026-04-23 16:40 | 36.13307 | -121.92861 | 30030 ft | 475 kts | 155° |
| 2026-04-23 16:41 | 36.10453 | -121.90810 | 30314 ft | 474 kts | 156° |
| 2026-04-23 16:41 | 36.07604 | -121.88764 | 30554 ft | 473 kts | 156° |
| 2026-04-23 16:41 | 36.04793 | -121.86745 | 30788 ft | 473 kts | 156° |
| 2026-04-23 16:41 | 36.01946 | -121.84701 | 31042 ft | 472 kts | 155° |
| 2026-04-23 16:42 | 35.99281 | -121.82273 | 31228 ft | 483 kts | 140° |
| 2026-04-23 16:42 | 35.97057 | -121.79129 | 31451 ft | 488 kts | 132° |
| 2026-04-23 16:42 | 35.95009 | -121.75776 | 31613 ft | 489 kts | 130° |
| 2026-04-23 16:42 | 35.92998 | -121.72396 | 31862 ft | 488 kts | 130° |
| 2026-04-23 16:43 | 35.90980 | -121.69019 | 32104 ft | 487 kts | 131° |
| 2026-04-23 16:43 | 35.88948 | -121.65671 | 32311 ft | 486 kts | 131° |
| 2026-04-23 16:43 | 35.86895 | -121.62353 | 32490 ft | 486 kts | 132° |
| 2026-04-23 16:43 | 35.84824 | -121.59059 | 32670 ft | 486 kts | 133° |
| 2026-04-23 16:44 | 35.82766 | -121.55814 | 32870 ft | 485 kts | 133° |
| 2026-04-23 16:44 | 35.80685 | -121.52542 | 33063 ft | 484 kts | 133° |
| 2026-04-23 16:44 | 35.78610 | -121.49277 | 33288 ft | 484 kts | 133° |
| 2026-04-23 16:44 | 35.76540 | -121.46011 | 33443 ft | 484 kts | 133° |
| 2026-04-23 16:45 | 35.74469 | -121.42740 | 33588 ft | 484 kts | 133° |
| 2026-04-23 16:45 | 35.72397 | -121.39477 | 33782 ft | 484 kts | 133° |
| 2026-04-23 16:45 | 35.70317 | -121.36228 | 33990 ft | 482 kts | 133° |
| 2026-04-23 16:45 | 35.68241 | -121.32988 | 34161 ft | 482 kts | 133° |
| 2026-04-23 16:46 | 35.66170 | -121.29749 | 34277 ft | 482 kts | 133° |
| 2026-04-23 16:46 | 35.64105 | -121.26510 | 34481 ft | 480 kts | 133° |
| 2026-04-23 16:46 | 35.62055 | -121.23282 | 34669 ft | 479 kts | 133° |
| 2026-04-23 16:46 | 35.60014 | -121.20063 | 34748 ft | 480 kts | 133° |
| 2026-04-23 16:47 | 35.57957 | -121.16823 | 34849 ft | 480 kts | 133° |
| 2026-04-23 16:47 | 35.55925 | -121.13624 | 34994 ft | 480 kts | 133° |
| 2026-04-23 16:47 | 35.51826 | -121.07182 | 35132 ft | 477 kts | 133° |
| 2026-04-23 16:48 | 35.47901 | -121.00658 | 35142 ft | 473 kts | 130° |
| 2026-04-23 16:48 | 35.44150 | -120.94058 | 35171 ft | 472 kts | 129° |
| 2026-04-23 16:49 | 35.40369 | -120.87450 | 35160 ft | 474 kts | 130° |
| 2026-04-23 16:49 | 35.36532 | -120.80856 | 35122 ft | 474 kts | 130° |
| 2026-04-23 16:50 | 35.32704 | -120.74287 | 35151 ft | 473 kts | 130° |
| 2026-04-23 16:50 | 35.28887 | -120.67724 | 35179 ft | 474 kts | 130° |
| 2026-04-23 16:51 | 35.25087 | -120.61220 | 35156 ft | 471 kts | 130° |
| 2026-04-23 16:51 | 35.21267 | -120.54734 | 35143 ft | 470 kts | 130° |
| 2026-04-23 16:52 | 35.17447 | -120.48254 | 35157 ft | 469 kts | 129° |
| 2026-04-23 16:52 | 35.13640 | -120.41770 | 35147 ft | 469 kts | 130° |
| 2026-04-23 16:53 | 35.09829 | -120.35289 | 35146 ft | 471 kts | 130° |
| 2026-04-23 16:53 | 35.05995 | -120.28783 | 35123 ft | 472 kts | 130° |
| 2026-04-23 16:54 | 35.02165 | -120.22292 | 35117 ft | 469 kts | 130° |
| 2026-04-23 16:54 | 34.98361 | -120.15887 | 35131 ft | 470 kts | 130° |
| 2026-04-23 16:55 | 34.94510 | -120.09433 | 35128 ft | 470 kts | 130° |
| 2026-04-23 16:55 | 34.90663 | -120.02969 | 35104 ft | 470 kts | 130° |
| 2026-04-23 16:56 | 34.86831 | -119.96525 | 35111 ft | 470 kts | 130° |
| 2026-04-23 16:56 | 34.83004 | -119.90078 | 35115 ft | 470 kts | 130° |
| 2026-04-23 16:57 | 34.79171 | -119.83681 | 35108 ft | 469 kts | 130° |
| 2026-04-23 16:57 | 34.75326 | -119.77294 | 35103 ft | 466 kts | 130° |
| 2026-04-23 16:58 | 34.71528 | -119.70967 | 35093 ft | 461 kts | 130° |
| 2026-04-23 16:58 | 34.67738 | -119.64661 | 35104 ft | 465 kts | 130° |
| 2026-04-23 16:59 | 34.63898 | -119.58326 | 35100 ft | 465 kts | 130° |
| 2026-04-23 16:59 | 34.60099 | -119.51980 | 35081 ft | 463 kts | 130° |
| 2026-04-23 17:00 | 34.56282 | -119.45694 | 35093 ft | 463 kts | 130° |
| 2026-04-23 17:00 | 34.52508 | -119.39413 | 35095 ft | 463 kts | 130° |
| 2026-04-23 17:01 | 34.48671 | -119.33129 | 35078 ft | 464 kts | 130° |
| 2026-04-23 17:01 | 34.44816 | -119.26838 | 35070 ft | 465 kts | 130° |
| 2026-04-23 17:02 | 34.40988 | -119.20555 | 35074 ft | 461 kts | 130° |
| 2026-04-23 17:02 | 34.37195 | -119.14326 | 35063 ft | 457 kts | 130° |
| 2026-04-23 17:03 | 34.33415 | -119.08107 | 35076 ft | 460 kts | 130° |
| 2026-04-23 17:03 | 34.29602 | -119.01876 | 35084 ft | 462 kts | 131° |
| 2026-04-23 17:04 | 34.25772 | -118.95630 | 35085 ft | 463 kts | 131° |
| 2026-04-23 17:04 | 34.21917 | -118.89393 | 35087 ft | 463 kts | 132° |
| 2026-04-23 17:05 | 34.18069 | -118.83167 | 35077 ft | 462 kts | 131° |
| 2026-04-23 17:05 | 34.14226 | -118.76938 | 35071 ft | 462 kts | 131° |
| 2026-04-23 17:06 | 34.10395 | -118.70697 | 35064 ft | 465 kts | 133° |
| 2026-04-23 17:06 | 34.06514 | -118.64421 | 35029 ft | 468 kts | 134° |
| 2026-04-23 17:07 | 34.02619 | -118.58169 | 35058 ft | 467 kts | 133° |
| 2026-04-23 17:07 | 33.98727 | -118.51875 | 35082 ft | 468 kts | 133° |
| 2026-04-23 17:08 | 33.94834 | -118.45565 | 35075 ft | 470 kts | 134° |
| 2026-04-23 17:08 | 33.90480 | -118.39874 | 35092 ft | 457 kts | 147° |
| 2026-04-23 17:09 | 33.85664 | -118.34887 | 35087 ft | 457 kts | 148° |
| 2026-04-23 17:09 | 33.80894 | -118.29870 | 35084 ft | 459 kts | 147° |
| 2026-04-23 17:10 | 33.76160 | -118.24748 | 35075 ft | 456 kts | 147° |
| 2026-04-23 17:10 | 33.71475 | -118.19637 | 35063 ft | 454 kts | 147° |
| 2026-04-23 17:11 | 33.66778 | -118.14546 | 35067 ft | 455 kts | 147° |
| 2026-04-23 17:11 | 33.62065 | -118.09457 | 35079 ft | 456 kts | 147° |
| 2026-04-23 17:12 | 33.57346 | -118.04378 | 35077 ft | 456 kts | 147° |
| 2026-04-23 17:12 | 33.52615 | -117.99309 | 35075 ft | 456 kts | 147° |
| 2026-04-23 17:13 | 33.47885 | -117.94247 | 35085 ft | 456 kts | 147° |
| 2026-04-23 17:13 | 33.43141 | -117.89165 | 35080 ft | 457 kts | 147° |
| 2026-04-23 17:14 | 33.38409 | -117.84091 | 35063 ft | 457 kts | 148° |
| 2026-04-23 17:14 | 33.33702 | -117.79062 | 35075 ft | 457 kts | 148° |
| 2026-04-23 17:15 | 33.28948 | -117.73997 | 35079 ft | 457 kts | 148° |
| 2026-04-23 17:15 | 33.24188 | -117.68953 | 35078 ft | 457 kts | 148° |
| 2026-04-23 17:16 | 33.19435 | -117.63908 | 35075 ft | 456 kts | 148° |
| 2026-04-23 17:16 | 33.14694 | -117.58881 | 35074 ft | 455 kts | 148° |
| 2026-04-23 17:17 | 33.09963 | -117.53874 | 35076 ft | 455 kts | 148° |
| 2026-04-23 17:17 | 33.05226 | -117.48866 | 35077 ft | 456 kts | 148° |
| 2026-04-23 17:18 | 32.98107 | -117.41339 | 35079 ft | 456 kts | 149° |
| 2026-04-23 17:19 | 32.93375 | -117.36379 | 35085 ft | 456 kts | 149° |
| 2026-04-23 17:19 | 32.88606 | -117.31383 | 35092 ft | 457 kts | 149° |
| 2026-04-23 17:20 | 32.83832 | -117.26373 | 35101 ft | 458 kts | 149° |
| 2026-04-23 17:21 | 32.74307 | -117.16380 | 35078 ft | 455 kts | 149° |
| 2026-04-23 17:21 | 32.67156 | -117.08907 | 35096 ft | 458 kts | 149° |
| 2026-04-23 17:22 | 32.60794 | -117.02262 | 35083 ft | 456 kts | 150° |
| 2026-04-23 17:23 | 32.53653 | -116.94823 | 35104 ft | 454 kts | 151° |
| 2026-04-23 17:24 | 32.46303 | -116.87817 | 35072 ft | 452 kts | 153° |
| 2026-04-23 17:24 | 32.38973 | -116.80853 | 35099 ft | 453 kts | 152° |
| 2026-04-23 17:25 | 32.31619 | -116.73766 | 35048 ft | 455 kts | 152° |
| 2026-04-23 17:26 | 32.21815 | -116.64367 | 35082 ft | 454 kts | 153° |
| 2026-04-23 17:27 | 32.14431 | -116.57311 | 35076 ft | 456 kts | 152° |
| 2026-04-23 17:27 | 32.09553 | -116.52486 | 35061 ft | 458 kts | 151° |
| 2026-04-23 17:28 | 32.04740 | -116.47655 | 35048 ft | 459 kts | 152° |
| 2026-04-23 17:28 | 31.99869 | -116.42773 | 35064 ft | 460 kts | 152° |
| 2026-04-23 17:29 | 31.94971 | -116.37908 | 35065 ft | 460 kts | 152° |
| 2026-04-23 17:30 | 31.87627 | -116.30640 | 35072 ft | 462 kts | 152° |
| 2026-04-23 17:30 | 31.80234 | -116.23324 | 35055 ft | 462 kts | 152° |
| 2026-04-23 17:31 | 31.75319 | -116.18483 | 35043 ft | 460 kts | 152° |
| 2026-04-23 17:31 | 31.70322 | -116.13826 | 35058 ft | 456 kts | 155° |
| 2026-04-23 17:32 | 31.65218 | -116.09381 | 35037 ft | 458 kts | 156° |
| 2026-04-23 17:32 | 31.60117 | -116.04898 | 35046 ft | 458 kts | 155° |
| 2026-04-23 17:33 | 31.55042 | -116.00389 | 35034 ft | 457 kts | 155° |
| 2026-04-23 17:33 | 31.50024 | -115.95914 | 35037 ft | 456 kts | 155° |
| 2026-04-23 17:34 | 31.44945 | -115.91404 | 35036 ft | 459 kts | 156° |
| 2026-04-23 17:35 | 31.37308 | -115.84644 | 35039 ft | 459 kts | 156° |
| 2026-04-23 17:35 | 31.29629 | -115.77881 | 35049 ft | 461 kts | 156° |
| 2026-04-23 17:36 | 31.24500 | -115.73358 | 35045 ft | 462 kts | 156° |
| 2026-04-23 17:36 | 31.19389 | -115.68846 | 35081 ft | 459 kts | 156° |
| 2026-04-23 17:37 | 31.14312 | -115.64369 | 35051 ft | 455 kts | 156° |
| 2026-04-23 17:38 | 31.06650 | -115.57662 | 35053 ft | 463 kts | 156° |
| 2026-04-23 17:38 | 31.01494 | -115.53167 | 35020 ft | 462 kts | 156° |
| 2026-04-23 17:39 | 30.96353 | -115.48672 | 35044 ft | 462 kts | 156° |
| 2026-04-23 17:39 | 30.91222 | -115.44181 | 35067 ft | 462 kts | 156° |
| 2026-04-23 17:40 | 30.86086 | -115.39680 | 35044 ft | 462 kts | 156° |
| 2026-04-23 17:40 | 30.80984 | -115.35220 | 35040 ft | 462 kts | 156° |
| 2026-04-23 17:41 | 30.75865 | -115.30623 | 35057 ft | 467 kts | 154° |
| 2026-04-23 17:41 | 30.68330 | -115.23559 | 35062 ft | 455 kts | 154° |
| 2026-04-23 17:42 | 30.60933 | -115.16721 | 35016 ft | 455 kts | 155° |
| 2026-04-23 17:43 | 30.55924 | -115.12143 | 35010 ft | 461 kts | 154° |
| 2026-04-23 17:43 | 30.50859 | -115.07475 | 35039 ft | 468 kts | 154° |
| 2026-04-23 17:44 | 30.45787 | -115.02788 | 35046 ft | 470 kts | 154° |
| 2026-04-23 17:44 | 30.38178 | -114.95824 | 34981 ft | 464 kts | 155° |
| 2026-04-23 17:45 | 30.30541 | -114.88863 | 35053 ft | 466 kts | 154° |
| 2026-04-23 17:46 | 30.22946 | -114.81896 | 35041 ft | 465 kts | 154° |
| 2026-04-23 17:46 | 30.17842 | -114.77257 | 35015 ft | 467 kts | 154° |
| 2026-04-23 17:47 | 30.12751 | -114.72621 | 34989 ft | 463 kts | 154° |
| 2026-04-23 17:48 | 30.05173 | -114.65746 | 35020 ft | 466 kts | 154° |
| 2026-04-23 17:48 | 30.00040 | -114.61092 | 35010 ft | 470 kts | 154° |
| 2026-04-23 17:49 | 29.94916 | -114.56473 | 34992 ft | 465 kts | 154° |
| 2026-04-23 17:49 | 29.89871 | -114.51893 | 35000 ft | 465 kts | 153° |
| 2026-04-23 17:50 | 29.84779 | -114.47279 | 35006 ft | 466 kts | 154° |
| 2026-04-23 17:50 | 29.77103 | -114.40373 | 35007 ft | 467 kts | 154° |
| 2026-04-23 17:51 | 29.71981 | -114.35775 | 34975 ft | 466 kts | 153° |
| 2026-04-23 17:52 | 29.64271 | -114.28885 | 35030 ft | 471 kts | 154° |
| 2026-04-23 17:52 | 29.56614 | -114.21947 | 35012 ft | 466 kts | 153° |
| 2026-04-23 17:53 | 29.48934 | -114.15075 | 34993 ft | 466 kts | 154° |
| 2026-04-23 17:54 | 29.43783 | -114.10523 | 35009 ft | 467 kts | 154° |
| 2026-04-23 17:54 | 29.36120 | -114.03693 | 35037 ft | 466 kts | 154° |
| 2026-04-23 17:55 | 29.28497 | -113.96900 | 35093 ft | 461 kts | 154° |
| 2026-04-23 17:56 | 29.23378 | -113.92363 | 35029 ft | 468 kts | 152° |
| 2026-04-23 17:56 | 29.15633 | -113.85452 | 35027 ft | 470 kts | 153° |
| 2026-04-23 17:57 | 29.10513 | -113.80879 | 35031 ft | 463 kts | 153° |
| 2026-04-23 17:58 | 29.02856 | -113.74153 | 35008 ft | 466 kts | 153° |
| 2026-04-23 17:58 | 28.97677 | -113.69639 | 35032 ft | 470 kts | 153° |
| 2026-04-23 17:59 | 28.92546 | -113.65109 | 35034 ft | 468 kts | 153° |
| 2026-04-23 17:59 | 28.87405 | -113.60554 | 35029 ft | 467 kts | 153° |
| 2026-04-23 18:00 | 28.82255 | -113.56023 | 35150 ft | 471 kts | 153° |
| 2026-04-23 18:00 | 28.79665 | -113.53738 | 35048 ft | 469 kts | 152° |
| 2026-04-23 18:00 | 28.77101 | -113.51466 | 35026 ft | 465 kts | 152° |
| 2026-04-23 18:01 | 28.72016 | -113.46980 | 35018 ft | 462 kts | 153° |
| 2026-04-23 18:01 | 28.66878 | -113.42516 | 35010 ft | 467 kts | 153° |
| 2026-04-23 18:02 | 28.62590 | -113.38780 | 35009 ft | 466 kts | 152° |
| 2026-04-23 18:02 | 28.56580 | -113.33507 | 34993 ft | 467 kts | 153° |
| 2026-04-23 18:03 | 28.51430 | -113.29001 | 35009 ft | 468 kts | 152° |
| 2026-04-23 18:03 | 28.46269 | -113.24489 | 35014 ft | 469 kts | 153° |
| 2026-04-23 18:04 | 28.41135 | -113.20020 | 35002 ft | 468 kts | 152° |
| 2026-04-23 18:04 | 28.35965 | -113.15529 | 35003 ft | 467 kts | 153° |
| 2026-04-23 18:05 | 28.30797 | -113.11045 | 35004 ft | 467 kts | 153° |
| 2026-04-23 18:05 | 28.25629 | -113.06596 | 35033 ft | 467 kts | 152° |
| 2026-04-23 18:06 | 28.20482 | -113.02100 | 34993 ft | 466 kts | 152° |
| 2026-04-23 18:06 | 28.15340 | -112.97614 | 34996 ft | 466 kts | 152° |
| 2026-04-23 18:07 | 28.10185 | -112.93195 | 34995 ft | 465 kts | 153° |
| 2026-04-23 18:07 | 28.04982 | -112.88737 | 35005 ft | 471 kts | 152° |
| 2026-04-23 18:08 | 28.00666 | -112.84990 | 34995 ft | 469 kts | 152° |
| 2026-04-23 18:08 | 27.94667 | -112.79811 | 35006 ft | 464 kts | 152° |
| 2026-04-23 18:09 | 27.89490 | -112.75376 | 35002 ft | 468 kts | 152° |
| 2026-04-23 18:09 | 27.85172 | -112.71678 | 34974 ft | 469 kts | 152° |
| 2026-04-23 18:10 | 27.79129 | -112.66486 | 34980 ft | 469 kts | 152° |
| 2026-04-23 18:10 | 27.73941 | -112.62026 | 34993 ft | 468 kts | 152° |
| 2026-04-23 18:11 | 27.69593 | -112.58312 | 34983 ft | 468 kts | 152° |
| 2026-04-23 18:11 | 27.64436 | -112.53917 | 34989 ft | 467 kts | 152° |
| 2026-04-23 18:12 | 27.59271 | -112.49471 | 34965 ft | 465 kts | 151° |
| 2026-04-23 18:12 | 27.54072 | -112.45139 | 35002 ft | 464 kts | 151° |
| 2026-04-23 18:13 | 27.48957 | -112.40713 | 34983 ft | 462 kts | 151° |
| 2026-04-23 18:13 | 27.43816 | -112.36314 | 34980 ft | 465 kts | 151° |
| 2026-04-23 18:14 | 27.38676 | -112.31892 | 34976 ft | 464 kts | 152° |
| 2026-04-23 18:14 | 27.33454 | -112.27562 | 34976 ft | 468 kts | 152° |
| 2026-04-23 18:15 | 27.28060 | -112.23606 | 34990 ft | 460 kts | 158° |
| 2026-04-23 18:15 | 27.22568 | -112.19911 | 34982 ft | 460 kts | 158° |
| 2026-04-23 18:16 | 27.17092 | -112.16195 | 34970 ft | 460 kts | 158° |
| 2026-04-23 18:16 | 27.11640 | -112.12444 | 34967 ft | 459 kts | 157° |
| 2026-04-23 18:17 | 27.03498 | -112.06806 | 34970 ft | 460 kts | 156° |
| 2026-04-23 18:17 | 26.98038 | -112.03034 | 34968 ft | 461 kts | 157° |
| 2026-04-23 18:18 | 26.92565 | -111.99277 | 34972 ft | 462 kts | 157° |
| 2026-04-23 18:18 | 26.87090 | -111.95507 | 34951 ft | 460 kts | 157° |
| 2026-04-23 18:19 | 26.81628 | -111.91774 | 34963 ft | 459 kts | 157° |
| 2026-04-23 18:19 | 26.76181 | -111.88018 | 34971 ft | 459 kts | 157° |
| 2026-04-23 18:20 | 26.70751 | -111.84329 | 34959 ft | 459 kts | 157° |
| 2026-04-23 18:20 | 26.65299 | -111.80608 | 34961 ft | 459 kts | 156° |
| 2026-04-23 18:21 | 26.59846 | -111.76886 | 34949 ft | 459 kts | 156° |
| 2026-04-23 18:21 | 26.54404 | -111.73165 | 34958 ft | 459 kts | 156° |
| 2026-04-23 18:22 | 26.48958 | -111.69445 | 34965 ft | 459 kts | 156° |
| 2026-04-23 18:22 | 26.43503 | -111.65738 | 34973 ft | 459 kts | 156° |
| 2026-04-23 18:23 | 26.35356 | -111.60172 | 34961 ft | 458 kts | 156° |
| 2026-04-23 18:24 | 26.27179 | -111.54641 | 34980 ft | 459 kts | 156° |
| 2026-04-23 18:25 | 26.18998 | -111.49101 | 34974 ft | 459 kts | 156° |
| 2026-04-23 18:25 | 26.13550 | -111.45411 | 34977 ft | 457 kts | 156° |
| 2026-04-23 18:26 | 26.08118 | -111.41736 | 34975 ft | 456 kts | 156° |
| 2026-04-23 18:26 | 26.02689 | -111.38071 | 34972 ft | 457 kts | 156° |
| 2026-04-23 18:27 | 25.97340 | -111.34205 | 35015 ft | 467 kts | 145° |
| 2026-04-23 18:27 | 25.92782 | -111.28975 | 35016 ft | 474 kts | 138° |
| 2026-04-23 18:28 | 25.88358 | -111.23541 | 35003 ft | 474 kts | 139° |
| 2026-04-23 18:28 | 25.83883 | -111.18183 | 34984 ft | 471 kts | 139° |
| 2026-04-23 18:29 | 25.79396 | -111.12923 | 34984 ft | 468 kts | 140° |
| 2026-04-23 18:29 | 25.74891 | -111.07670 | 34973 ft | 471 kts | 140° |
| 2026-04-23 18:30 | 25.70405 | -111.02429 | 34968 ft | 472 kts | 139° |
| 2026-04-23 18:30 | 25.65884 | -110.97143 | 34964 ft | 472 kts | 140° |
| 2026-04-23 18:31 | 25.61351 | -110.91864 | 34945 ft | 472 kts | 139° |
| 2026-04-23 18:31 | 25.56833 | -110.86609 | 34959 ft | 469 kts | 139° |
| 2026-04-23 18:32 | 25.52343 | -110.81372 | 34957 ft | 469 kts | 139° |
| 2026-04-23 18:32 | 25.47855 | -110.76150 | 34963 ft | 472 kts | 139° |
| 2026-04-23 18:33 | 25.43319 | -110.70871 | 34960 ft | 473 kts | 139° |
| 2026-04-23 18:33 | 25.38788 | -110.65602 | 34960 ft | 471 kts | 139° |
| 2026-04-23 18:34 | 25.34263 | -110.60374 | 34961 ft | 469 kts | 139° |
| 2026-04-23 18:34 | 25.29756 | -110.55169 | 34960 ft | 469 kts | 139° |
| 2026-04-23 18:35 | 25.25241 | -110.49945 | 34964 ft | 470 kts | 139° |
| 2026-04-23 18:35 | 25.20713 | -110.44707 | 34966 ft | 472 kts | 139° |
| 2026-04-23 18:36 | 25.16202 | -110.39497 | 34966 ft | 472 kts | 139° |
| 2026-04-23 18:36 | 25.11666 | -110.34262 | 34947 ft | 472 kts | 139° |
| 2026-04-23 18:37 | 25.07157 | -110.29084 | 34957 ft | 470 kts | 139° |
| 2026-04-23 18:37 | 25.02634 | -110.23891 | 34962 ft | 469 kts | 139° |
| 2026-04-23 18:38 | 24.98118 | -110.18707 | 34964 ft | 469 kts | 139° |
| 2026-04-23 18:38 | 24.93593 | -110.13516 | 34967 ft | 470 kts | 139° |
| 2026-04-23 18:39 | 24.89086 | -110.08348 | 34965 ft | 471 kts | 139° |
| 2026-04-23 18:39 | 24.84542 | -110.03143 | 34959 ft | 471 kts | 138° |
| 2026-04-23 18:40 | 24.80034 | -109.97987 | 34961 ft | 469 kts | 139° |
| 2026-04-23 18:40 | 24.75507 | -109.92829 | 34966 ft | 468 kts | 139° |
| 2026-04-23 18:41 | 24.70973 | -109.87667 | 34966 ft | 469 kts | 139° |
| 2026-04-23 18:41 | 24.66441 | -109.82504 | 34513 ft | 465 kts | 139° |
| 2026-04-23 18:41 | 24.64218 | -109.79967 | 34045 ft | 457 kts | 139° |
| 2026-04-23 18:42 | 24.62027 | -109.77469 | 33447 ft | 451 kts | 139° |
| 2026-04-23 18:42 | 24.59847 | -109.74990 | 32810 ft | 452 kts | 139° |
| 2026-04-23 18:42 | 24.57624 | -109.72476 | 32186 ft | 466 kts | 138° |
| 2026-04-23 18:42 | 24.55329 | -109.69882 | 31542 ft | 480 kts | 138° |
| 2026-04-23 18:43 | 24.52984 | -109.67225 | 30876 ft | 486 kts | 138° |
| 2026-04-23 18:43 | 24.50632 | -109.64573 | 30181 ft | 482 kts | 138° |
| 2026-04-23 18:43 | 24.48309 | -109.61958 | 29406 ft | 475 kts | 138° |
| 2026-04-23 18:43 | 24.46027 | -109.59382 | 28695 ft | 466 kts | 137° |
| 2026-04-23 18:44 | 24.43790 | -109.56846 | 28066 ft | 458 kts | 137° |
| 2026-04-23 18:44 | 24.41630 | -109.54388 | 27461 ft | 450 kts | 137° |
| 2026-04-23 18:44 | 24.39479 | -109.51939 | 26867 ft | 442 kts | 137° |
| 2026-04-23 18:44 | 24.37363 | -109.49530 | 26311 ft | 435 kts | 137° |
| 2026-04-23 18:45 | 24.35272 | -109.47152 | 25750 ft | 429 kts | 137° |
| 2026-04-23 18:45 | 24.33005 | -109.45101 | 25164 ft | 417 kts | 154° |
| 2026-04-23 18:45 | 24.30366 | -109.43989 | 24711 ft | 399 kts | 174° |
| 2026-04-23 18:45 | 24.27613 | -109.43840 | 24035 ft | 400 kts | 188° |
| 2026-04-23 18:46 | 24.24813 | -109.44228 | 23252 ft | 408 kts | 193° |
| 2026-04-23 18:46 | 24.22031 | -109.44820 | 22455 ft | 406 kts | 196° |
| 2026-04-23 18:46 | 24.19290 | -109.45511 | 21736 ft | 401 kts | 197° |
| 2026-04-23 18:46 | 24.16593 | -109.46246 | 21056 ft | 397 kts | 198° |
| 2026-04-23 18:47 | 24.13929 | -109.46983 | 20406 ft | 393 kts | 198° |
| 2026-04-23 18:47 | 24.11280 | -109.47704 | 19779 ft | 392 kts | 197° |
| 2026-04-23 18:47 | 24.08633 | -109.48407 | 19164 ft | 390 kts | 197° |
| 2026-04-23 18:47 | 24.05995 | -109.49091 | 18555 ft | 389 kts | 197° |
| 2026-04-23 18:48 | 24.03364 | -109.49764 | 17893 ft | 388 kts | 196° |
| 2026-04-23 18:48 | 24.00740 | -109.50431 | 17236 ft | 386 kts | 196° |
| 2026-04-23 18:48 | 23.98131 | -109.51088 | 16610 ft | 383 kts | 196° |
| 2026-04-23 18:48 | 23.95556 | -109.51735 | 16002 ft | 377 kts | 196° |
| 2026-04-23 18:49 | 23.93058 | -109.52363 | 15422 ft | 370 kts | 196° |
| 2026-04-23 18:49 | 23.90579 | -109.52999 | 14836 ft | 362 kts | 198° |
| 2026-04-23 18:49 | 23.88206 | -109.53770 | 14417 ft | 350 kts | 201° |
| 2026-04-23 18:49 | 23.85936 | -109.54621 | 14003 ft | 340 kts | 202° |
| 2026-04-23 18:50 | 23.84439 | -109.55206 | 13728 ft | 338 kts | 202° |
| 2026-04-23 18:50 | 23.81498 | -109.56351 | 13141 ft | 339 kts | 202° |
| 2026-04-23 18:50 | 23.79268 | -109.57200 | 12717 ft | 339 kts | 201° |
| 2026-04-23 18:50 | 23.77040 | -109.58032 | 12322 ft | 337 kts | 201° |
| 2026-04-23 18:51 | 23.74822 | -109.58847 | 11919 ft | 335 kts | 201° |
| 2026-04-23 18:51 | 23.72622 | -109.59651 | 11512 ft | 332 kts | 201° |
| 2026-04-23 18:51 | 23.70441 | -109.60449 | 11099 ft | 329 kts | 201° |
| 2026-04-23 18:51 | 23.68314 | -109.61226 | 10720 ft | 324 kts | 201° |
| 2026-04-23 18:52 | 23.66209 | -109.61997 | 10491 ft | 313 kts | 201° |
| 2026-04-23 18:52 | 23.64207 | -109.62728 | 10301 ft | 292 kts | 201° |
| 2026-04-23 18:52 | 23.62352 | -109.63404 | 10109 ft | 271 kts | 201° |
| 2026-04-23 18:52 | 23.60575 | -109.64058 | 9438 ft | 272 kts | 202° |
| 2026-04-23 18:53 | 23.58784 | -109.64730 | 8698 ft | 272 kts | 201° |
| 2026-04-23 18:53 | 23.57002 | -109.65392 | 8060 ft | 268 kts | 201° |
| 2026-04-23 18:53 | 23.55243 | -109.66040 | 7480 ft | 265 kts | 201° |
| 2026-04-23 18:53 | 23.53507 | -109.66674 | 6961 ft | 262 kts | 200° |
| 2026-04-23 18:54 | 23.51777 | -109.67308 | 6457 ft | 262 kts | 200° |
| 2026-04-23 18:54 | 23.50046 | -109.67953 | 5982 ft | 263 kts | 200° |
| 2026-04-23 18:54 | 23.48358 | -109.68577 | 5880 ft | 248 kts | 200° |
| 2026-04-23 18:54 | 23.46758 | -109.69159 | 5808 ft | 238 kts | 200° |
| 2026-04-23 18:55 | 23.45206 | -109.69722 | 5731 ft | 232 kts | 200° |
| 2026-04-23 18:55 | 23.43688 | -109.70278 | 5664 ft | 234 kts | 200° |
| 2026-04-23 18:55 | 23.42155 | -109.70837 | 5598 ft | 227 kts | 200° |
| 2026-04-23 18:55 | 23.40693 | -109.71368 | 5528 ft | 217 kts | 200° |
| 2026-04-23 18:56 | 23.39739 | -109.71720 | 5477 ft | 211 kts | 200° |
| 2026-04-23 18:56 | 23.37930 | -109.72389 | 5268 ft | 205 kts | 200° |
| 2026-04-23 18:56 | 23.36569 | -109.72886 | 4970 ft | 207 kts | 200° |
| 2026-04-23 18:56 | 23.35192 | -109.73388 | 4621 ft | 210 kts | 199° |
| 2026-04-23 18:57 | 23.33809 | -109.73896 | 4247 ft | 210 kts | 199° |
| 2026-04-23 18:57 | 23.32375 | -109.74108 | 3956 ft | 207 kts | 177° |
| 2026-04-23 18:57 | 23.30959 | -109.73955 | 3641 ft | 203 kts | 173° |
| 2026-04-23 18:57 | 23.29559 | -109.73774 | 3311 ft | 201 kts | 174° |
| 2026-04-23 18:58 | 23.28169 | -109.73591 | 2962 ft | 201 kts | 173° |
| 2026-04-23 18:58 | 23.26801 | -109.73411 | 2605 ft | 193 kts | 173° |
| 2026-04-23 18:58 | 23.25531 | -109.73254 | 2285 ft | 174 kts | 172° |
| 2026-04-23 18:58 | 23.24393 | -109.73110 | 2043 ft | 159 kts | 172° |
| 2026-04-23 18:59 | 23.23668 | -109.73017 | 1906 ft | 156 kts | 173° |
| 2026-04-23 18:59 | 23.22604 | -109.72887 | 1687 ft | 155 kts | 172° |
| 2026-04-23 18:59 | 23.21532 | -109.72752 | 1543 ft | 152 kts | 172° |
| 2026-04-23 18:59 | 23.20475 | -109.72595 | 1362 ft | 155 kts | 171° |
| 2026-04-23 19:00 | 23.19399 | -109.72502 | 1257 ft | 153 kts | 175° |
| 2026-04-23 19:00 | 23.18373 | -109.72412 | 1022 ft | 144 kts | 173° |
| 2026-04-23 19:00 | 23.17381 | -109.72321 | 705 ft | 143 kts | 171° |
| 2026-04-23 19:00 | 23.16393 | -109.72211 | 433 ft | 141 kts | 171° |
| 2026-04-23 19:01 | 23.15472 | -109.72104 | 369 ft | 122 kts | 172° |
| 2026-04-23 19:01 | 23.14849 | -109.72032 | 355 ft | 63 kts | 173° |
| 2026-04-23 19:01 | 23.14569 | -109.71917 | 354 ft | 30 kts | 144° |
| 2026-04-23 19:01 | 23.14479 | -109.71816 | 348 ft | 11 kts | 78° |
| 2026-04-23 19:02 | 23.14536 | -109.71791 | 351 ft | 10 kts | 356° |
| 2026-04-23 19:02 | 23.14617 | -109.71801 | 350 ft | 13 kts | 353° |
| 2026-04-23 19:02 | 23.14712 | -109.71813 | 353 ft | 15 kts | 353° |
| 2026-04-23 19:02 | 23.14847 | -109.71827 | 358 ft | 25 kts | 354° |
| 2026-04-23 19:03 | 23.15017 | -109.71847 | 362 ft | 24 kts | 353° |
| 2026-04-23 19:03 | 23.15184 | -109.71866 | 362 ft | 24 kts | 354° |
| 2026-04-23 19:03 | 23.15346 | -109.71884 | 365 ft | 23 kts | 354° |
| 2026-04-23 19:03 | 23.15503 | -109.71902 | 370 ft | 21 kts | 353° |
| 2026-04-23 19:04 | 23.15640 | -109.71918 | 370 ft | 17 kts | 354° |
| 2026-04-23 19:04 | 23.15710 | -109.71903 | 372 ft | 7 kts | 60° |
| 2026-04-23 19:04 | 23.15718 | -109.71844 | 372 ft | 9 kts | 88° |
| 2026-04-23 19:04 | 23.15722 | -109.71790 | 372 ft | 4 kts | 84° |
| 2026-04-23 19:05 | 23.15723 | -109.71779 | 372 ft | 0 kts | 83° |